首页
METAR-TAF:

METAR-TAF

机场 :

斯瓦尔巴朗伊尔机场

朗伊爾城, 挪威

纬度: 78-15N, 经度: 015-28E, 海拔: 2米

当前天气观测

该预报发布于52分钟前的20:50 UTC
风速17节,风向东转东南
温度 3°C
湿度 75%
气压 979 hPa
能见度10公里或以上
多云层高于3200英尺

METAR: ENSB 212050Z 11017KT 9999 BKN032 03/M01 Q0979 RMK WIND 1400FT 10027KT

时间: 23:42 (21:42 UTC)

预报

预报有效从21日的 18点(UTC)到 22日的 18点(UTC)
风速20节,风向
能见度10公里或以上
少量云层高于1500英尺
多云层高于3000英尺
小雨
短暂存在
从 21日的 18点(UTC)到 21日的 24点(UTC)
风速25节,风向东转东南,有时为40节阵风
短暂存在
从 22日的 06点(UTC)到 22日的 12点(UTC)
风速25节,风向东转东南,有时为40节阵风

TAF: ENSB 2118/2218 10020KT 9999 -RA FEW015 BKN030 TEMPO 2118/2124 12025G40KT TEMPO 2206/2212 12025G40KT

超过4000个机场的气象观测和天气预报(METAR&TAF报告)。

可查询的气象台以黄色和红色小点在地图上表示。

将鼠标移到小点上方,可查看气象台名称。

然后点击查看天气观测和预报。

如需切换地图:点击带黑十字的绿色按钮放大地图;点击带横线的绿色按钮缩小地图;或者点击绿色箭头查看邻近地区的地图。


METAR-TAF: